LVIRU SAZB-SAZM
Flight info
| Callsign | LVIRU |
|---|---|
| Flight time | 0h 40m |
| Altitude | 24000 |
| Route | SAZB 17L DOTR1C DOTRI W32 SIRAN SIRA2Q SAZM PUNOX I13 Z |
| Aircraft | LJ35/L-S/C |
Departure
| Time | 2026-05-06 19:50 |
|---|---|
| Airport | Comandante Espora Airport (SAZB) |
Arrival
| Time | 2026-05-06 20:30 |
|---|---|
| Airport | Ástor Piazzola International Airport (SAZM) |
| Time | Latitude | Longitude | Altitude | Speed | Heading |
|---|---|---|---|---|---|
| 2026-05-06 19:41 | -38.71690 | -62.16258 | 251 ft | 0 kts | 318° |
| 2026-05-06 19:47 | -38.71667 | -62.16262 | 251 ft | 7 kts | 25° |
| 2026-05-06 19:48 | -38.71648 | -62.16188 | 251 ft | 12 kts | 98° |
| 2026-05-06 19:48 | -38.71645 | -62.16062 | 251 ft | 17 kts | 65° |
| 2026-05-06 19:48 | -38.71578 | -62.15915 | 251 ft | 21 kts | 61° |
| 2026-05-06 19:48 | -38.71579 | -62.15784 | 252 ft | 9 kts | 139° |
| 2026-05-06 19:49 | -38.71633 | -62.15747 | 252 ft | 9 kts | 163° |
| 2026-05-06 19:49 | -38.71661 | -62.15735 | 252 ft | 14 kts | 164° |
| 2026-05-06 19:49 | -38.72137 | -62.15563 | 251 ft | 135 kts | 163° |
| 2026-05-06 19:49 | -38.73407 | -62.15129 | 528 ft | 227 kts | 160° |
| 2026-05-06 19:50 | -38.75128 | -62.14333 | 955 ft | 303 kts | 150° |
| 2026-05-06 19:50 | -38.76712 | -62.12667 | 1090 ft | 286 kts | 124° |
| 2026-05-06 19:50 | -38.77467 | -62.10332 | 1721 ft | 285 kts | 92° |
| 2026-05-06 19:50 | -38.77235 | -62.07861 | 3110 ft | 287 kts | 69° |
| 2026-05-06 19:51 | -38.76200 | -62.05618 | 3993 ft | 301 kts | 46° |
| 2026-05-06 19:51 | -38.74565 | -62.03882 | 4854 ft | 316 kts | 34° |
| 2026-05-06 19:51 | -38.72768 | -62.02205 | 5946 ft | 322 kts | 35° |
| 2026-05-06 19:51 | -38.71037 | -62.00314 | 6959 ft | 331 kts | 42° |
| 2026-05-06 19:52 | -38.69594 | -61.97974 | 7977 ft | 341 kts | 61° |
| 2026-05-06 19:52 | -38.68769 | -61.95091 | 8932 ft | 349 kts | 76° |
| 2026-05-06 19:52 | -38.68343 | -61.92008 | 9876 ft | 355 kts | 82° |
| 2026-05-06 19:52 | -38.67956 | -61.88863 | 10754 ft | 360 kts | 80° |
| 2026-05-06 19:53 | -38.67452 | -61.85703 | 11666 ft | 364 kts | 77° |
| 2026-05-06 19:53 | -38.66908 | -61.82521 | 12542 ft | 368 kts | 77° |
| 2026-05-06 19:53 | -38.66414 | -61.79290 | 13437 ft | 372 kts | 79° |
| 2026-05-06 19:53 | -38.65941 | -61.76013 | 14233 ft | 376 kts | 78° |
| 2026-05-06 19:54 | -38.65439 | -61.72767 | 15047 ft | 377 kts | 76° |
| 2026-05-06 19:54 | -38.64909 | -61.69473 | 15840 ft | 380 kts | 76° |
| 2026-05-06 19:54 | -38.64388 | -61.66135 | 16601 ft | 384 kts | 75° |
| 2026-05-06 19:54 | -38.63872 | -61.62767 | 17346 ft | 388 kts | 75° |
| 2026-05-06 19:55 | -38.63341 | -61.59364 | 18057 ft | 392 kts | 74° |
| 2026-05-06 19:55 | -38.62801 | -61.55938 | 18679 ft | 396 kts | 74° |
| 2026-05-06 19:55 | -38.62255 | -61.52464 | 19296 ft | 400 kts | 73° |
| 2026-05-06 19:55 | -38.61707 | -61.48963 | 19890 ft | 404 kts | 73° |
| 2026-05-06 19:56 | -38.61150 | -61.45423 | 20489 ft | 408 kts | 73° |
| 2026-05-06 19:56 | -38.60586 | -61.41852 | 21073 ft | 411 kts | 73° |
| 2026-05-06 19:56 | -38.60015 | -61.38246 | 21644 ft | 416 kts | 73° |
| 2026-05-06 19:56 | -38.59439 | -61.34609 | 22198 ft | 419 kts | 73° |
| 2026-05-06 19:57 | -38.58857 | -61.30939 | 22746 ft | 423 kts | 73° |
| 2026-05-06 19:57 | -38.58266 | -61.27230 | 23255 ft | 427 kts | 73° |
| 2026-05-06 19:57 | -38.57669 | -61.23490 | 23666 ft | 432 kts | 72° |
| 2026-05-06 19:57 | -38.57073 | -61.19765 | 23711 ft | 433 kts | 72° |
| 2026-05-06 19:58 | -38.56466 | -61.16003 | 23711 ft | 432 kts | 72° |
| 2026-05-06 19:58 | -38.55862 | -61.12240 | 23712 ft | 431 kts | 72° |
| 2026-05-06 19:58 | -38.55261 | -61.08496 | 23711 ft | 430 kts | 72° |
| 2026-05-06 19:58 | -38.54658 | -61.04753 | 23712 ft | 429 kts | 72° |
| 2026-05-06 19:59 | -38.54055 | -61.01023 | 23712 ft | 429 kts | 72° |
| 2026-05-06 19:59 | -38.53450 | -60.97290 | 23719 ft | 428 kts | 72° |
| 2026-05-06 19:59 | -38.52845 | -60.93564 | 23707 ft | 428 kts | 72° |
| 2026-05-06 19:59 | -38.52238 | -60.89835 | 23715 ft | 429 kts | 72° |
| 2026-05-06 20:00 | -38.51628 | -60.86097 | 23718 ft | 429 kts | 72° |
| 2026-05-06 20:00 | -38.51017 | -60.82359 | 23722 ft | 429 kts | 72° |
| 2026-05-06 20:00 | -38.50408 | -60.78633 | 23718 ft | 429 kts | 72° |
| 2026-05-06 20:00 | -38.49802 | -60.74946 | 23715 ft | 429 kts | 72° |
| 2026-05-06 20:01 | -38.49187 | -60.71209 | 23720 ft | 430 kts | 72° |
| 2026-05-06 20:01 | -38.48571 | -60.67467 | 23722 ft | 430 kts | 72° |
| 2026-05-06 20:01 | -38.47955 | -60.63734 | 23722 ft | 430 kts | 72° |
| 2026-05-06 20:01 | -38.47336 | -60.59995 | 23720 ft | 430 kts | 72° |
| 2026-05-06 20:02 | -38.46714 | -60.56249 | 23719 ft | 431 kts | 72° |
| 2026-05-06 20:02 | -38.46091 | -60.52500 | 23721 ft | 431 kts | 72° |
| 2026-05-06 20:02 | -38.45469 | -60.48758 | 23722 ft | 431 kts | 72° |
| 2026-05-06 20:02 | -38.44844 | -60.45014 | 23720 ft | 432 kts | 72° |
| 2026-05-06 20:03 | -38.44224 | -60.41306 | 23724 ft | 432 kts | 72° |
| 2026-05-06 20:03 | -38.43597 | -60.37550 | 23722 ft | 432 kts | 72° |
| 2026-05-06 20:03 | -38.42973 | -60.33798 | 23724 ft | 432 kts | 72° |
| 2026-05-06 20:03 | -38.42341 | -60.30049 | 23726 ft | 432 kts | 72° |
| 2026-05-06 20:04 | -38.41706 | -60.26304 | 23728 ft | 432 kts | 72° |
| 2026-05-06 20:04 | -38.41072 | -60.22552 | 23726 ft | 432 kts | 72° |
| 2026-05-06 20:04 | -38.40441 | -60.18812 | 23725 ft | 432 kts | 72° |
| 2026-05-06 20:04 | -38.39804 | -60.15057 | 23725 ft | 432 kts | 72° |
| 2026-05-06 20:05 | -38.39167 | -60.11310 | 23731 ft | 432 kts | 72° |
| 2026-05-06 20:05 | -38.38528 | -60.07566 | 23732 ft | 432 kts | 72° |
| 2026-05-06 20:05 | -38.37897 | -60.03864 | 23729 ft | 432 kts | 72° |
| 2026-05-06 20:05 | -38.37257 | -60.00120 | 23730 ft | 433 kts | 72° |
| 2026-05-06 20:06 | -38.36615 | -59.96373 | 23730 ft | 433 kts | 72° |
| 2026-05-06 20:06 | -38.35965 | -59.92623 | 23731 ft | 433 kts | 71° |
| 2026-05-06 20:06 | -38.35317 | -59.88879 | 23735 ft | 433 kts | 72° |
| 2026-05-06 20:06 | -38.34674 | -59.85136 | 23734 ft | 433 kts | 72° |
| 2026-05-06 20:07 | -38.34028 | -59.81383 | 23738 ft | 433 kts | 71° |
| 2026-05-06 20:07 | -38.33380 | -59.77642 | 23736 ft | 433 kts | 71° |
| 2026-05-06 20:07 | -38.32730 | -59.73905 | 23735 ft | 433 kts | 71° |
| 2026-05-06 20:07 | -38.32080 | -59.70165 | 23737 ft | 433 kts | 71° |
| 2026-05-06 20:08 | -38.31430 | -59.66424 | 23737 ft | 433 kts | 71° |
| 2026-05-06 20:08 | -38.30764 | -59.62634 | 23743 ft | 451 kts | 71° |
| 2026-05-06 20:08 | -38.30057 | -59.58638 | 23748 ft | 470 kts | 72° |
| 2026-05-06 20:08 | -38.29354 | -59.54577 | 23753 ft | 482 kts | 72° |
| 2026-05-06 20:09 | -38.28624 | -59.50362 | 23760 ft | 491 kts | 72° |
| 2026-05-06 20:09 | -38.27871 | -59.46090 | 23758 ft | 497 kts | 72° |
| 2026-05-06 20:09 | -38.27104 | -59.41771 | 23758 ft | 501 kts | 72° |
| 2026-05-06 20:09 | -38.26337 | -59.37428 | 23770 ft | 503 kts | 72° |
| 2026-05-06 20:10 | -38.25571 | -59.33065 | 23765 ft | 505 kts | 72° |
| 2026-05-06 20:10 | -38.24804 | -59.28758 | 23762 ft | 505 kts | 72° |
| 2026-05-06 20:10 | -38.24022 | -59.24398 | 23759 ft | 506 kts | 72° |
| 2026-05-06 20:10 | -38.23243 | -59.20027 | 23766 ft | 507 kts | 72° |
| 2026-05-06 20:11 | -38.22463 | -59.15646 | 23759 ft | 507 kts | 72° |
| 2026-05-06 20:11 | -38.21678 | -59.11273 | 23756 ft | 508 kts | 72° |
| 2026-05-06 20:11 | -38.20891 | -59.06901 | 23759 ft | 502 kts | 72° |
| 2026-05-06 20:11 | -38.20120 | -59.02605 | 23753 ft | 495 kts | 72° |
| 2026-05-06 20:12 | -38.19351 | -58.98351 | 23753 ft | 491 kts | 72° |
| 2026-05-06 20:12 | -38.18596 | -58.94193 | 23753 ft | 480 kts | 71° |
| 2026-05-06 20:12 | -38.17897 | -58.90260 | 23587 ft | 435 kts | 71° |
| 2026-05-06 20:12 | -38.17223 | -58.86528 | 21726 ft | 436 kts | 71° |
| 2026-05-06 20:13 | -38.16744 | -58.84007 | 20758 ft | 430 kts | 71° |
| 2026-05-06 20:13 | -38.15855 | -58.79176 | 18989 ft | 419 kts | 72° |
| 2026-05-06 20:13 | -38.15214 | -58.75593 | 17639 ft | 411 kts | 72° |
| 2026-05-06 20:13 | -38.14790 | -58.73261 | 16708 ft | 405 kts | 72° |
| 2026-05-06 20:14 | -38.14154 | -58.69815 | 15431 ft | 396 kts | 72° |
| 2026-05-06 20:14 | -38.13531 | -58.66439 | 14179 ft | 387 kts | 72° |
| 2026-05-06 20:14 | -38.12926 | -58.63144 | 12914 ft | 379 kts | 72° |
| 2026-05-06 20:14 | -38.12339 | -58.59925 | 11683 ft | 369 kts | 73° |
| 2026-05-06 20:15 | -38.11765 | -58.56787 | 10500 ft | 360 kts | 73° |
| 2026-05-06 20:15 | -38.11199 | -58.53730 | 9310 ft | 351 kts | 73° |
| 2026-05-06 20:15 | -38.10470 | -58.49806 | 7810 ft | 336 kts | 73° |
| 2026-05-06 20:15 | -38.10119 | -58.47906 | 7090 ft | 329 kts | 73° |
| 2026-05-06 20:16 | -38.09602 | -58.45122 | 6070 ft | 320 kts | 73° |
| 2026-05-06 20:16 | -38.09099 | -58.42437 | 5110 ft | 305 kts | 73° |
| 2026-05-06 20:16 | -38.08626 | -58.39920 | 4773 ft | 278 kts | 73° |
| 2026-05-06 20:16 | -38.08196 | -58.37608 | 4757 ft | 262 kts | 72° |
| 2026-05-06 20:17 | -38.07782 | -58.35402 | 4764 ft | 251 kts | 72° |
| 2026-05-06 20:17 | -38.07384 | -58.33281 | 4763 ft | 243 kts | 72° |
| 2026-05-06 20:17 | -38.06998 | -58.31220 | 4764 ft | 237 kts | 72° |
| 2026-05-06 20:17 | -38.06621 | -58.29210 | 4763 ft | 232 kts | 72° |
| 2026-05-06 20:18 | -38.06253 | -58.27240 | 4767 ft | 227 kts | 72° |
| 2026-05-06 20:18 | -38.05896 | -58.25323 | 4758 ft | 225 kts | 72° |
| 2026-05-06 20:18 | -38.05536 | -58.23406 | 4763 ft | 222 kts | 72° |
| 2026-05-06 20:18 | -38.05181 | -58.21522 | 4863 ft | 217 kts | 71° |
| 2026-05-06 20:19 | -38.04828 | -58.19683 | 4967 ft | 211 kts | 69° |
| 2026-05-06 20:19 | -38.04206 | -58.18040 | 5013 ft | 205 kts | 56° |
| 2026-05-06 20:19 | -38.03485 | -58.16464 | 5015 ft | 207 kts | 57° |
| 2026-05-06 20:19 | -38.02778 | -58.14864 | 5013 ft | 209 kts | 57° |
| 2026-05-06 20:20 | -38.02061 | -58.13253 | 5012 ft | 210 kts | 56° |
| 2026-05-06 20:20 | -38.01337 | -58.11629 | 4953 ft | 210 kts | 57° |
| 2026-05-06 20:20 | -38.00625 | -58.10036 | 4897 ft | 206 kts | 57° |
| 2026-05-06 20:20 | -37.99931 | -58.08479 | 4741 ft | 203 kts | 57° |
| 2026-05-06 20:21 | -37.99237 | -58.06934 | 4328 ft | 200 kts | 57° |
| 2026-05-06 20:21 | -37.98554 | -58.05405 | 3886 ft | 199 kts | 59° |
| 2026-05-06 20:21 | -37.97880 | -58.03886 | 3615 ft | 196 kts | 59° |
| 2026-05-06 20:21 | -37.97209 | -58.02389 | 3375 ft | 194 kts | 60° |
| 2026-05-06 20:22 | -37.96545 | -58.00911 | 3063 ft | 192 kts | 60° |
| 2026-05-06 20:22 | -37.95911 | -57.99496 | 3014 ft | 177 kts | 61° |
| 2026-05-06 20:22 | -37.95328 | -57.98193 | 3013 ft | 165 kts | 60° |
| 2026-05-06 20:22 | -37.94765 | -57.96938 | 3007 ft | 164 kts | 59° |
| 2026-05-06 20:23 | -37.94201 | -57.95681 | 3007 ft | 166 kts | 60° |
| 2026-05-06 20:23 | -37.93625 | -57.94396 | 3011 ft | 171 kts | 59° |
| 2026-05-06 20:23 | -37.93028 | -57.93066 | 3009 ft | 176 kts | 59° |
| 2026-05-06 20:23 | -37.92417 | -57.91703 | 3007 ft | 179 kts | 59° |
| 2026-05-06 20:24 | -37.91793 | -57.90312 | 3020 ft | 184 kts | 59° |
| 2026-05-06 20:24 | -37.91153 | -57.88885 | 3019 ft | 189 kts | 59° |
| 2026-05-06 20:24 | -37.90506 | -57.87443 | 3028 ft | 192 kts | 59° |
| 2026-05-06 20:24 | -37.89825 | -57.85967 | 3019 ft | 196 kts | 55° |
| 2026-05-06 20:25 | -37.89000 | -57.84604 | 3014 ft | 193 kts | 52° |
| 2026-05-06 20:25 | -37.88172 | -57.83252 | 3014 ft | 195 kts | 52° |
| 2026-05-06 20:25 | -37.87349 | -57.81871 | 3019 ft | 196 kts | 52° |
| 2026-05-06 20:25 | -37.86522 | -57.80490 | 3016 ft | 197 kts | 52° |
| 2026-05-06 20:26 | -37.85693 | -57.79110 | 3019 ft | 197 kts | 52° |
| 2026-05-06 20:26 | -37.84934 | -57.77667 | 3024 ft | 199 kts | 64° |
| 2026-05-06 20:26 | -37.84648 | -57.75945 | 3030 ft | 204 kts | 84° |
| 2026-05-06 20:26 | -37.84906 | -57.74182 | 2820 ft | 209 kts | 105° |
| 2026-05-06 20:27 | -37.85643 | -57.72608 | 2578 ft | 211 kts | 116° |
| 2026-05-06 20:27 | -37.86447 | -57.71061 | 2340 ft | 209 kts | 115° |
| 2026-05-06 20:27 | -37.87230 | -57.69526 | 2102 ft | 206 kts | 115° |
| 2026-05-06 20:27 | -37.88000 | -57.68000 | 1836 ft | 206 kts | 116° |
| 2026-05-06 20:28 | -37.88772 | -57.66469 | 1556 ft | 206 kts | 117° |
| 2026-05-06 20:28 | -37.89553 | -57.64945 | 1263 ft | 206 kts | 117° |
| 2026-05-06 20:28 | -37.90314 | -57.63461 | 996 ft | 190 kts | 118° |
| 2026-05-06 20:28 | -37.90970 | -57.62185 | 762 ft | 158 kts | 119° |
| 2026-05-06 20:29 | -37.91521 | -57.61091 | 560 ft | 137 kts | 120° |
| 2026-05-06 20:29 | -37.92027 | -57.60087 | 374 ft | 142 kts | 120° |
| 2026-05-06 20:29 | -37.92565 | -57.58987 | 296 ft | 148 kts | 120° |
| 2026-05-06 20:29 | -37.93114 | -57.57934 | 53 ft | 131 kts | 120° |
| 2026-05-06 20:30 | -37.93538 | -57.57082 | 48 ft | 101 kts | 123° |
| 2026-05-06 20:30 | -37.93905 | -57.56370 | 47 ft | 25 kts | 131° |
| 2026-05-06 20:30 | -37.93966 | -57.56330 | 47 ft | 4 kts | 188° |
| 2026-05-06 20:31 | -37.93990 | -57.56351 | 47 ft | 4 kts | 236° |
| 2026-05-06 20:31 | -37.94011 | -57.56401 | 48 ft | 9 kts | 241° |
| 2026-05-06 20:31 | -37.94027 | -57.56501 | 48 ft | 15 kts | 296° |
| 2026-05-06 20:31 | -37.93968 | -57.56642 | 48 ft | 21 kts | 298° |
| 2026-05-06 20:32 | -37.93889 | -57.56829 | 48 ft | 27 kts | 300° |
| 2026-05-06 20:32 | -37.93787 | -57.57059 | 48 ft | 33 kts | 298° |
| 2026-05-06 20:32 | -37.93666 | -57.57329 | 48 ft | 38 kts | 300° |
| 2026-05-06 20:32 | -37.93531 | -57.57635 | 48 ft | 43 kts | 299° |
| 2026-05-06 20:33 | -37.93420 | -57.57887 | 48 ft | 21 kts | 300° |
| 2026-05-06 20:33 | -37.93372 | -57.58017 | 48 ft | 11 kts | 248° |
| 2026-05-06 20:33 | -37.93426 | -57.57987 | 48 ft | 11 kts | 120° |
| 2026-05-06 20:33 | -37.93433 | -57.57959 | 48 ft | 3 kts | 40° |
| 2026-05-06 20:34 | -37.93420 | -57.57968 | 48 ft | 0 kts | 304° |